createdAt,value
2023-01-17T00:01:33.836Z,71.56
2023-01-17T00:04:19.016Z,71.57
2023-01-17T00:07:04.601Z,71.19
2023-01-17T00:09:49.429Z,72.50
2023-01-17T00:12:15.951Z,72.17
2023-01-17T00:14:42.402Z,73.48
2023-01-17T00:17:08.860Z,73.22
2023-01-17T00:19:53.911Z,73.50
2023-01-17T00:22:42.248Z,72.66
2023-01-17T00:25:32.432Z,73.35
2023-01-17T00:27:59.397Z,73.41
2023-01-17T00:30:26.446Z,73.99
2023-01-17T00:32:52.862Z,72.91
2023-01-17T00:35:22.987Z,73.83
2023-01-17T00:37:52.635Z,75.33
2023-01-17T00:40:19.142Z,74.69
2023-01-17T00:42:47.665Z,74.10
2023-01-17T00:45:32.764Z,74.58
2023-01-17T00:48:17.984Z,74.72
2023-01-17T00:51:03.240Z,75.32
2023-01-17T00:53:48.224Z,76.43
2023-01-17T00:56:33.133Z,78.40
2023-01-17T00:59:18.025Z,77.31
2023-01-17T01:02:03.395Z,76.24
2023-01-17T01:04:48.360Z,77.14
2023-01-17T01:07:33.615Z,78.40
2023-01-17T01:10:18.404Z,77.03
2023-01-17T01:13:03.624Z,77.32
2023-01-17T01:15:50.323Z,78.71
2023-01-17T01:18:35.357Z,79.03
2023-01-17T01:21:22.520Z,77.08
2023-01-17T01:24:07.582Z,77.49
2023-01-17T01:26:52.486Z,77.45
2023-01-17T01:29:40.339Z,77.22
2023-01-17T01:32:25.531Z,76.70
2023-01-17T01:34:52.008Z,77.49
2023-01-17T01:37:18.495Z,79.51
2023-01-17T01:39:44.949Z,77.99
2023-01-17T01:42:15.826Z,78.99
2023-01-17T01:44:50.127Z,79.29
2023-01-17T01:47:33.078Z,79.36
2023-01-17T01:50:02.386Z,79.57
2023-01-17T01:52:32.493Z,77.67
2023-01-17T01:55:04.153Z,77.78
2023-01-17T01:57:38.889Z,77.50
2023-01-17T02:00:11.677Z,78.06
2023-01-17T02:02:39.063Z,78.16
2023-01-17T02:05:06.236Z,76.69
2023-01-17T02:07:43.709Z,75.94
2023-01-17T02:10:10.931Z,76.04
2023-01-17T02:12:38.120Z,76.79
2023-01-17T02:15:07.595Z,77.52
2023-01-17T02:17:56.678Z,76.46
2023-01-17T02:20:47.689Z,77.32
2023-01-17T02:23:29.328Z,77.55
2023-01-17T02:26:20.826Z,77.70
2023-01-17T02:28:58.570Z,77.93
2023-01-17T02:31:35.326Z,78.55
2023-01-17T02:34:19.559Z,79.28
2023-01-17T02:36:56.218Z,78.25
2023-01-17T02:39:28.335Z,80.01
2023-01-17T02:42:01.005Z,79.07
2023-01-17T02:44:27.452Z,78.52
2023-01-17T02:46:57.117Z,79.94
2023-01-17T02:49:30.335Z,78.54
2023-01-17T02:52:19.749Z,79.00
2023-01-17T02:55:01.559Z,79.56
2023-01-17T02:57:44.435Z,80.27
2023-01-17T03:00:20.040Z,78.86
2023-01-17T03:03:02.349Z,79.17
2023-01-17T03:05:39.876Z,80.47
2023-01-17T03:08:06.612Z,80.17
2023-01-17T03:10:35.532Z,79.72
2023-01-17T03:13:03.432Z,80.97
2023-01-17T03:15:29.973Z,79.94
2023-01-17T03:18:00.618Z,80.37
2023-01-17T03:20:27.286Z,81.93
2023-01-17T03:22:53.714Z,81.38
2023-01-17T03:25:20.197Z,81.20
2023-01-17T03:27:46.855Z,81.96
2023-01-17T03:30:13.906Z,81.72
2023-01-17T03:32:40.385Z,81.93
2023-01-17T03:35:07.235Z,81.77
2023-01-17T03:37:33.788Z,82.26
2023-01-17T03:40:03.051Z,83.51
2023-01-17T03:42:29.697Z,82.58
2023-01-17T03:44:56.291Z,82.12
2023-01-17T03:47:22.804Z,83.35
2023-01-17T03:49:49.392Z,82.70
2023-01-17T03:52:15.749Z,82.90
2023-01-17T03:54:42.196Z,83.41
2023-01-17T03:57:08.753Z,84.14
2023-01-17T03:59:35.270Z,84.48
2023-01-17T04:02:01.915Z,84.27
2023-01-17T04:04:28.319Z,84.36
2023-01-17T04:06:54.766Z,85.56
2023-01-17T04:09:21.291Z,84.94
2023-01-17T04:11:50.892Z,84.31
2023-01-17T04:14:17.771Z,84.87
2023-01-17T04:16:44.391Z,84.02
2023-01-17T04:19:13.409Z,86.21
2023-01-17T04:21:39.992Z,85.17
2023-01-17T04:24:06.794Z,84.25
2023-01-17T04:26:33.224Z,84.46
2023-01-17T04:28:59.800Z,85.11
2023-01-17T04:31:26.353Z,84.59
2023-01-17T04:33:52.907Z,84.83
2023-01-17T04:36:19.390Z,84.19
2023-01-17T04:38:45.951Z,84.31
2023-01-17T04:41:12.617Z,83.81
2023-01-17T04:43:39.159Z,84.40
2023-01-17T04:46:10.006Z,87.82
2023-01-17T04:48:37.166Z,90.91
2023-01-17T04:51:05.089Z,92.19
2023-01-17T04:53:32.163Z,93.49
2023-01-17T04:55:58.644Z,93.91
2023-01-17T04:58:25.275Z,95.54
2023-01-17T05:00:51.874Z,95.21
2023-01-17T05:03:19.579Z,96.52
2023-01-17T05:05:46.497Z,97.58
2023-01-17T05:08:13.150Z,96.52
2023-01-17T05:10:39.640Z,95.76
2023-01-17T05:13:06.320Z,96.84
2023-01-17T05:15:32.823Z,96.10
2023-01-17T05:17:59.273Z,97.15
2023-01-17T05:20:27.883Z,97.65
2023-01-17T05:22:55.959Z,98.64
2023-01-17T05:25:24.784Z,97.39
2023-01-17T05:27:52.009Z,98.58
2023-01-17T05:30:19.068Z,98.59
2023-01-17T05:32:49.422Z,97.84
2023-01-17T05:35:17.191Z,98.71
2023-01-17T05:37:49.183Z,99.69
2023-01-17T05:40:17.456Z,99.99
2023-01-17T05:42:51.627Z,100.00
2023-01-17T05:45:19.617Z,100.00
2023-01-17T05:47:48.270Z,99.75
2023-01-17T05:50:18.086Z,98.18
2023-01-17T05:52:51.756Z,98.59
2023-01-17T05:55:18.735Z,98.09
2023-01-17T05:57:45.711Z,98.28
2023-01-17T06:00:13.496Z,96.76
2023-01-17T06:02:40.487Z,97.43
2023-01-17T06:05:07.681Z,96.37
2023-01-17T06:07:38.358Z,95.66
2023-01-17T06:10:05.769Z,94.93
2023-01-17T06:12:33.423Z,94.47
2023-01-17T06:14:59.895Z,94.73
2023-01-17T06:17:26.483Z,95.59
2023-01-17T06:19:52.969Z,95.49
2023-01-17T06:22:19.524Z,94.24
2023-01-17T06:24:46.002Z,95.42
2023-01-17T06:27:12.428Z,95.75
2023-01-17T06:29:39.172Z,94.92
2023-01-17T06:32:05.678Z,94.62
2023-01-17T06:34:32.129Z,93.76
2023-01-17T06:36:58.930Z,92.88
2023-01-17T06:39:25.638Z,92.42
2023-01-17T06:41:59.222Z,93.45
2023-01-17T06:44:29.100Z,94.01
2023-01-17T06:46:55.635Z,93.73
2023-01-17T06:49:27.178Z,94.39
2023-01-17T06:51:53.720Z,95.29
2023-01-17T06:54:20.289Z,95.62
2023-01-17T06:56:46.670Z,95.45
2023-01-17T06:59:13.121Z,95.02
2023-01-17T07:01:48.303Z,94.19
2023-01-17T07:04:15.243Z,94.98
2023-01-17T07:06:41.739Z,96.54
2023-01-17T07:09:08.201Z,96.02
2023-01-17T07:11:34.805Z,96.64
2023-01-17T07:14:01.281Z,96.95
2023-01-17T07:16:27.822Z,96.96
2023-01-17T07:18:55.219Z,97.29
2023-01-17T07:21:26.840Z,96.46
2023-01-17T07:23:53.467Z,96.48
2023-01-17T07:26:22.290Z,95.70
2023-01-17T07:28:49.106Z,94.16
2023-01-17T07:31:22.776Z,93.27
2023-01-17T07:33:49.554Z,93.43
2023-01-17T07:36:16.305Z,94.52
2023-01-17T07:38:45.037Z,93.02
2023-01-17T07:41:11.722Z,93.50
2023-01-17T07:43:38.410Z,91.81
2023-01-17T07:55:21.598Z,92.74
2023-01-17T07:57:26.119Z,91.95
2023-01-17T07:59:59.140Z,90.90
2023-01-17T08:02:36.298Z,90.99
2023-01-17T08:05:11.623Z,91.16
2023-01-17T08:07:38.698Z,90.64
2023-01-17T08:10:08.916Z,91.40
2023-01-17T08:12:38.081Z,91.29
2023-01-17T08:15:07.583Z,91.71
2023-01-17T08:17:34.486Z,88.44
2023-01-17T08:20:01.081Z,90.04
2023-01-17T08:22:33.340Z,89.19
2023-01-17T08:24:59.899Z,88.96
2023-01-17T08:27:26.453Z,89.34
2023-01-17T08:29:53.188Z,88.20
2023-01-17T08:32:21.477Z,88.40
2023-01-17T08:34:48.041Z,88.98
2023-01-17T08:37:14.625Z,89.57
2023-01-17T08:39:41.288Z,89.74
2023-01-17T08:42:08.052Z,89.13
2023-01-17T08:44:34.697Z,89.15
2023-01-17T08:47:01.502Z,89.06
2023-01-17T08:49:36.108Z,88.42
2023-01-17T08:52:02.642Z,86.97
2023-01-17T08:54:29.181Z,88.77
2023-01-17T08:56:55.764Z,88.43
2023-01-17T08:59:22.455Z,88.20
2023-01-17T09:01:49.271Z,87.95
2023-01-17T09:04:15.857Z,88.59
2023-01-17T09:06:45.409Z,87.45
2023-01-17T09:09:12.136Z,88.16
2023-01-17T09:11:38.746Z,87.56
2023-01-17T09:14:05.264Z,87.84
2023-01-17T09:16:33.249Z,86.70
2023-01-17T09:18:59.912Z,87.43
2023-01-17T09:21:26.920Z,87.59
2023-01-17T09:23:58.680Z,88.36
2023-01-17T09:26:29.865Z,88.42
2023-01-17T09:28:56.436Z,87.23
2023-01-17T09:31:23.867Z,87.54
2023-01-17T09:33:51.889Z,87.86
2023-01-17T09:36:18.730Z,91.10
2023-01-17T09:38:46.712Z,92.13
2023-01-17T09:41:51.290Z,94.93
2023-01-17T09:44:31.218Z,96.30
2023-01-17T09:47:11.189Z,96.73
2023-01-17T09:49:43.318Z,95.86
2023-01-17T09:52:14.510Z,95.00
2023-01-17T09:54:43.772Z,94.50
2023-01-17T09:57:30.654Z,93.94
2023-01-17T10:00:16.749Z,92.98
2023-01-17T10:03:20.866Z,92.55
2023-01-17T10:05:59.516Z,92.63
2023-01-17T10:08:48.633Z,92.69
2023-01-17T10:11:52.453Z,92.02
2023-01-17T10:14:37.782Z,91.70
2023-01-17T10:17:53.579Z,91.09
2023-01-17T10:20:46.502Z,89.98
2023-01-17T10:23:42.154Z,90.09
2023-01-17T10:26:16.631Z,89.84
2023-01-17T10:28:48.707Z,90.86
2023-01-17T10:31:31.153Z,92.83
2023-01-17T10:34:05.217Z,96.21
2023-01-17T10:36:38.615Z,95.79
2023-01-17T10:39:19.358Z,95.72
2023-01-17T10:41:55.196Z,96.95
2023-01-17T10:44:35.673Z,96.15
2023-01-17T10:47:11.041Z,93.33
2023-01-17T10:49:41.242Z,94.08
2023-01-17T10:52:36.852Z,93.58
2023-01-17T10:55:30.250Z,92.75
2023-01-17T10:57:58.371Z,90.50
2023-01-17T11:00:44.038Z,90.15
2023-01-17T11:03:16.550Z,92.08
2023-01-17T11:06:23.671Z,91.03
2023-01-17T11:08:56.521Z,91.77
2023-01-17T11:11:32.025Z,90.11
2023-01-17T11:14:14.184Z,90.53
2023-01-17T11:16:40.825Z,90.93
2023-01-17T11:19:07.141Z,89.54
2023-01-17T11:21:33.704Z,89.46
2023-01-17T11:24:09.988Z,90.41
2023-01-17T11:26:38.682Z,90.51
2023-01-17T11:29:14.225Z,92.36
2023-01-17T11:31:40.684Z,94.11
2023-01-17T11:34:18.485Z,96.75
2023-01-17T11:36:44.956Z,97.17
2023-01-17T11:39:17.454Z,100.00
2023-01-17T11:41:46.001Z,100.00
2023-01-17T11:44:30.850Z,100.00
2023-01-17T11:47:12.735Z,100.00
2023-01-17T11:49:45.028Z,100.00
2023-01-17T11:52:25.319Z,100.00
2023-01-17T11:54:54.401Z,100.00
2023-01-17T11:57:31.216Z,100.00
2023-01-17T12:00:22.358Z,100.00
2023-01-17T12:03:15.335Z,100.00
2023-01-17T12:06:00.045Z,100.00
2023-01-17T12:08:52.934Z,100.00
2023-01-17T12:12:13.451Z,100.00
2023-01-17T12:15:09.764Z,100.00
2023-01-17T12:17:50.256Z,100.00
2023-01-17T12:20:46.597Z,100.00
2023-01-17T12:23:24.357Z,100.00
2023-01-17T12:26:43.033Z,100.00
2023-01-17T12:29:24.789Z,100.00
2023-01-17T12:32:12.940Z,100.00
2023-01-17T12:38:35.851Z,100.00
2023-01-17T12:41:10.383Z,100.00
2023-01-17T12:43:54.160Z,100.00
2023-01-17T12:46:34.488Z,100.00
2023-01-17T12:49:22.835Z,98.77
2023-01-17T12:51:57.366Z,96.49
2023-01-17T12:54:36.837Z,96.10
2023-01-17T12:57:14.010Z,96.76
2023-01-17T12:59:48.146Z,95.44
2023-01-17T13:02:47.470Z,94.95
2023-01-17T13:05:36.108Z,96.57
2023-01-17T13:08:12.925Z,96.00
2023-01-17T13:10:51.161Z,95.39
2023-01-17T13:13:24.246Z,94.95
2023-01-17T13:15:57.664Z,91.64
2023-01-17T13:18:29.957Z,92.13
2023-01-17T13:21:21.967Z,90.97
2023-01-17T13:23:59.205Z,90.48
2023-01-17T13:26:36.421Z,89.80
2023-01-17T13:29:20.453Z,90.80
2023-01-17T13:32:20.878Z,89.19
2023-01-17T13:34:50.858Z,89.37
2023-01-17T13:37:29.999Z,88.67
2023-01-17T13:40:15.209Z,87.68
2023-01-17T13:42:50.800Z,86.93
2023-01-17T13:45:37.856Z,86.98
2023-01-17T13:48:28.751Z,86.14
2023-01-17T13:50:58.170Z,85.50
2023-01-17T13:53:42.835Z,87.40
2023-01-17T13:56:18.634Z,86.84
2023-01-17T13:58:47.238Z,87.70
2023-01-17T14:01:13.783Z,87.50
2023-01-17T14:03:48.594Z,88.63
2023-01-17T14:06:30.415Z,87.92
2023-01-17T14:09:19.029Z,88.03
2023-01-17T14:12:26.396Z,87.38
2023-01-17T14:14:58.804Z,87.68
2023-01-17T14:17:47.699Z,88.37
2023-01-17T14:20:19.070Z,87.37
2023-01-17T14:22:53.628Z,88.60
2023-01-17T14:25:28.090Z,87.92
2023-01-17T14:28:05.231Z,89.13
2023-01-17T14:30:31.775Z,89.43
2023-01-17T14:33:01.424Z,89.30
2023-01-17T14:35:48.802Z,88.33
2023-01-17T14:38:24.280Z,87.73
2023-01-17T14:40:55.557Z,86.82
2023-01-17T14:43:24.984Z,88.03
2023-01-17T14:46:04.216Z,87.88
2023-01-17T14:48:31.672Z,87.48
2023-01-17T14:51:01.900Z,87.43
2023-01-17T14:53:30.694Z,86.81
2023-01-17T14:56:05.157Z,85.51
2023-01-17T14:58:36.846Z,85.62
2023-01-17T15:01:12.630Z,87.53
2023-01-17T15:03:58.240Z,85.47
2023-01-17T15:06:28.027Z,86.64
2023-01-17T15:08:54.647Z,85.25
2023-01-17T15:11:23.551Z,84.76
2023-01-17T15:13:57.368Z,84.98
2023-01-17T15:16:29.944Z,83.26
2023-01-17T15:18:57.431Z,83.15
2023-01-17T15:21:30.020Z,84.75
2023-01-17T15:23:58.713Z,86.52
2023-01-17T15:26:28.387Z,85.91
2023-01-17T15:32:55.721Z,86.50
2023-01-17T15:35:22.460Z,87.93
2023-01-17T15:38:13.861Z,88.79
2023-01-17T15:41:27.029Z,89.94
2023-01-17T15:43:57.635Z,90.12
2023-01-17T15:46:45.644Z,93.43
2023-01-17T15:49:23.569Z,93.92
2023-01-17T15:51:56.469Z,93.04
2023-01-17T15:54:29.036Z,90.55
2023-01-17T15:57:19.436Z,91.77
2023-01-17T16:00:07.744Z,94.88
2023-01-17T16:02:46.420Z,94.51
2023-01-17T16:05:22.595Z,95.51
2023-01-17T16:07:50.847Z,97.04
2023-01-17T16:10:21.437Z,96.40
2023-01-17T16:12:50.584Z,97.77
2023-01-17T16:15:18.624Z,97.49
2023-01-17T16:17:51.353Z,99.58
2023-01-17T16:20:24.977Z,100.00
2023-01-17T16:22:54.131Z,98.97
2023-01-17T16:25:25.302Z,99.16
2023-01-17T16:27:52.592Z,100.00
2023-01-17T16:30:21.609Z,99.90
2023-01-17T16:32:49.347Z,99.81
2023-01-17T16:35:19.032Z,100.00
2023-01-17T16:37:49.283Z,100.00
2023-01-17T16:40:16.057Z,100.00
2023-01-17T16:42:43.085Z,100.00
2023-01-17T16:45:14.306Z,100.00
2023-01-17T16:47:42.673Z,100.00
2023-01-17T16:50:11.343Z,100.00
2023-01-17T16:52:38.117Z,100.00
2023-01-17T16:55:12.127Z,100.00
2023-01-17T16:57:39.108Z,100.00
2023-01-17T17:00:07.088Z,100.00
2023-01-17T17:02:33.803Z,100.00
2023-01-17T17:05:00.458Z,100.00
2023-01-17T17:07:26.829Z,100.00
2023-01-17T17:09:53.302Z,100.00
2023-01-17T17:12:19.737Z,100.00
2023-01-17T17:14:46.159Z,100.00
2023-01-17T17:17:12.615Z,100.00
2023-01-17T17:19:39.073Z,100.00
2023-01-17T17:22:06.693Z,100.00
2023-01-17T17:24:33.363Z,100.00
2023-01-17T17:26:59.885Z,100.00
2023-01-17T17:29:26.488Z,100.00
2023-01-17T17:32:00.233Z,100.00
2023-01-17T17:34:27.672Z,100.00
2023-01-17T17:36:54.066Z,100.00
2023-01-17T17:39:20.658Z,100.00
2023-01-17T17:41:47.048Z,100.00
2023-01-17T17:44:13.526Z,100.00
2023-01-17T17:46:40.279Z,100.00
2023-01-17T17:49:06.826Z,100.00
2023-01-17T17:51:33.210Z,100.00
2023-01-17T17:54:01.863Z,100.00
2023-01-17T17:56:30.589Z,100.00
2023-01-17T17:58:58.531Z,100.00
2023-01-17T18:01:25.384Z,100.00
2023-01-17T18:03:53.720Z,100.00
2023-01-17T18:06:20.924Z,100.00
2023-01-17T18:08:47.722Z,100.00
2023-01-17T18:11:18.556Z,100.00
2023-01-17T18:13:47.837Z,100.00
2023-01-17T18:16:16.470Z,100.00
2023-01-17T18:18:49.297Z,100.00
2023-01-17T18:21:25.216Z,100.00
2023-01-17T18:23:57.748Z,100.00
2023-01-17T18:26:27.973Z,100.00
2023-01-17T18:28:55.882Z,100.00
2023-01-17T18:31:30.116Z,100.00
2023-01-17T18:33:59.207Z,100.00
2023-01-17T18:36:28.707Z,100.00
2023-01-17T18:38:55.357Z,100.00
2023-01-17T18:41:29.353Z,100.00
2023-01-17T18:43:56.131Z,100.00
2023-01-17T18:46:23.245Z,100.00
2023-01-17T18:48:49.671Z,100.00
2023-01-17T18:51:18.916Z,100.00
2023-01-17T18:53:46.434Z,100.00
2023-01-17T18:56:15.162Z,100.00
2023-01-17T18:58:44.799Z,100.00
2023-01-17T19:01:23.390Z,100.00
2023-01-17T19:03:52.820Z,100.00
2023-01-17T19:06:28.469Z,100.00
2023-01-17T19:08:54.885Z,100.00
2023-01-17T19:11:22.977Z,100.00
2023-01-17T19:13:50.356Z,100.00
2023-01-17T19:16:20.036Z,100.00
2023-01-17T19:18:47.133Z,100.00
2023-01-17T19:21:16.400Z,100.00
2023-01-17T19:23:46.161Z,100.00
2023-01-17T19:26:14.124Z,100.00
2023-01-17T19:28:42.288Z,100.00
2023-01-17T19:31:23.504Z,100.00
2023-01-17T19:33:52.204Z,100.00
2023-01-17T19:36:21.809Z,100.00
2023-01-17T19:39:03.033Z,100.00
2023-01-17T19:41:30.783Z,100.00
2023-01-17T19:43:59.405Z,100.00
2023-01-17T19:46:27.328Z,100.00
2023-01-17T19:48:55.931Z,100.00
2023-01-17T19:51:23.344Z,100.00
2023-01-17T19:53:49.841Z,100.00
2023-01-17T19:56:23.087Z,100.00
2023-01-17T19:58:49.908Z,100.00
2023-01-17T20:01:22.122Z,100.00
2023-01-17T20:03:49.874Z,100.00
2023-01-17T20:06:19.980Z,100.00
2023-01-17T20:08:46.609Z,100.00
2023-01-17T20:11:16.310Z,100.00
2023-01-17T20:13:46.179Z,100.00
2023-01-17T20:16:14.526Z,100.00
2023-01-17T20:19:03.104Z,100.00
2023-01-17T20:21:31.328Z,100.00
2023-01-17T20:24:00.047Z,100.00
2023-01-17T20:26:35.997Z,100.00
2023-01-17T20:29:07.401Z,100.00
2023-01-17T20:31:38.090Z,100.00
2023-01-17T20:34:05.419Z,100.00
2023-01-17T20:36:33.196Z,100.00
2023-01-17T20:39:00.957Z,100.00
2023-01-17T20:41:32.855Z,100.00
2023-01-17T20:44:01.062Z,100.00
2023-01-17T20:46:32.942Z,100.00
2023-01-17T20:49:01.221Z,100.00
2023-01-17T20:51:29.346Z,100.00
2023-01-17T20:54:26.466Z,100.00
2023-01-17T20:56:53.125Z,100.00
2023-01-17T20:59:24.289Z,100.00
2023-01-17T21:01:54.342Z,100.00
2023-01-17T21:04:26.024Z,100.00
2023-01-17T21:06:53.442Z,100.00
2023-01-17T21:09:21.481Z,100.00
2023-01-17T21:11:48.785Z,100.00
2023-01-17T21:14:16.329Z,100.00
2023-01-17T21:16:43.608Z,100.00
2023-01-17T21:19:14.319Z,100.00
2023-01-17T21:21:40.782Z,100.00
2023-01-17T21:24:07.507Z,100.00
2023-01-17T21:26:34.221Z,100.00
2023-01-17T21:29:02.075Z,100.00
2023-01-17T21:31:33.475Z,100.00
2023-01-17T21:34:02.684Z,100.00
2023-01-17T21:36:33.227Z,100.00
2023-01-17T21:39:04.845Z,100.00
2023-01-17T21:41:37.765Z,100.00
2023-01-17T21:44:10.125Z,100.00
2023-01-17T21:46:38.739Z,100.00
2023-01-17T21:49:08.536Z,100.00
2023-01-17T21:51:53.213Z,100.00
2023-01-17T21:54:40.691Z,100.00
2023-01-17T21:57:28.236Z,100.00
2023-01-17T21:59:54.840Z,100.00
2023-01-17T22:02:21.714Z,100.00
2023-01-17T22:04:48.247Z,100.00
2023-01-17T22:07:14.619Z,100.00
2023-01-17T22:09:41.045Z,100.00
2023-01-17T22:12:07.465Z,100.00
2023-01-17T22:14:34.195Z,100.00
2023-01-17T22:17:00.723Z,100.00
2023-01-17T22:19:27.044Z,100.00
2023-01-17T22:21:54.276Z,100.00
2023-01-17T22:24:21.723Z,100.00
2023-01-17T22:26:48.170Z,100.00
2023-01-17T22:29:18.599Z,100.00
2023-01-17T22:31:45.607Z,100.00
2023-01-17T22:34:14.058Z,100.00
2023-01-17T22:36:40.516Z,100.00
2023-01-17T22:39:06.988Z,100.00
2023-01-17T22:41:35.141Z,100.00
2023-01-17T22:44:02.399Z,100.00
2023-01-17T22:46:31.418Z,100.00
2023-01-17T22:48:58.317Z,100.00
2023-01-17T22:51:27.000Z,100.00
2023-01-17T22:53:56.258Z,100.00
2023-01-17T22:56:26.590Z,100.00
2023-01-17T22:58:53.516Z,100.00
2023-01-17T23:01:32.631Z,100.00
2023-01-17T23:04:01.659Z,100.00
2023-01-17T23:06:30.535Z,100.00
2023-01-17T23:08:59.096Z,100.00
2023-01-17T23:11:40.984Z,100.00
2023-01-17T23:14:53.901Z,100.00
2023-01-17T23:17:40.559Z,100.00
2023-01-17T23:20:13.580Z,100.00
2023-01-17T23:22:40.035Z,100.00
2023-01-17T23:25:07.989Z,100.00
2023-01-17T23:28:04.326Z,100.00
2023-01-17T23:30:39.148Z,100.00
2023-01-17T23:33:07.982Z,100.00
2023-01-17T23:35:41.463Z,100.00
2023-01-17T23:38:29.003Z,100.00
2023-01-17T23:41:26.315Z,100.00
2023-01-17T23:43:54.088Z,100.00
2023-01-17T23:46:21.248Z,100.00
2023-01-17T23:48:47.954Z,100.00
2023-01-17T23:51:14.515Z,100.00
2023-01-17T23:53:41.124Z,100.00
2023-01-17T23:56:16.285Z,100.00
2023-01-17T23:58:42.940Z,100.00
